createdAt,value
2017-10-04T00:01:12.035Z,0
2017-10-04T00:02:32.184Z,0
2017-10-04T00:03:52.482Z,0
2017-10-04T00:05:12.761Z,0
2017-10-04T00:06:33.092Z,0
2017-10-04T00:07:53.701Z,0
2017-10-04T00:09:13.897Z,0
2017-10-04T00:10:34.234Z,0
2017-10-04T00:11:54.299Z,0
2017-10-04T00:13:26.342Z,0
2017-10-04T00:14:46.826Z,0
2017-10-04T00:16:07.502Z,0
2017-10-04T00:17:27.744Z,0
2017-10-04T00:18:48.285Z,0
2017-10-04T00:20:09.511Z,0
2017-10-04T00:21:29.783Z,0
2017-10-04T00:22:50.003Z,0
2017-10-04T00:24:10.673Z,0
2017-10-04T00:25:30.848Z,0
2017-10-04T00:26:50.922Z,0
2017-10-04T00:28:11.389Z,0
2017-10-04T00:29:31.762Z,0
2017-10-04T00:30:51.884Z,0
2017-10-04T00:32:12.333Z,0
2017-10-04T00:33:32.548Z,0
2017-10-04T00:34:52.827Z,0
2017-10-04T00:36:13.152Z,0
2017-10-04T00:37:34.648Z,0
2017-10-04T00:38:54.840Z,0
2017-10-04T00:40:15.190Z,0
2017-10-04T00:41:35.501Z,0
2017-10-04T00:42:55.612Z,0
2017-10-04T00:44:15.874Z,0
2017-10-04T00:45:36.546Z,0
2017-10-04T00:46:56.818Z,0
2017-10-04T00:48:17.193Z,0
2017-10-04T00:49:37.472Z,0
2017-10-04T00:50:57.809Z,0
2017-10-04T00:52:18.022Z,0
2017-10-04T00:53:38.295Z,0
2017-10-04T00:54:58.474Z,0
2017-10-04T00:56:19.058Z,0
2017-10-04T00:57:39.382Z,0
2017-10-04T00:58:59.885Z,0
2017-10-04T01:00:20.148Z,0
2017-10-04T01:01:40.706Z,0
2017-10-04T01:03:01.047Z,0
2017-10-04T01:04:21.358Z,0
2017-10-04T01:05:41.570Z,0
2017-10-04T01:07:01.987Z,0
2017-10-04T01:08:22.283Z,0
2017-10-04T01:09:42.309Z,0
2017-10-04T01:11:02.602Z,0
2017-10-04T01:12:24.087Z,0
2017-10-04T01:13:44.837Z,0
2017-10-04T01:15:04.994Z,0
2017-10-04T01:16:25.236Z,0
2017-10-04T01:17:45.662Z,0
2017-10-04T01:19:06.754Z,0
2017-10-04T01:20:26.794Z,0
2017-10-04T01:21:46.986Z,0
2017-10-04T01:23:07.298Z,0
2017-10-04T01:24:27.504Z,0
2017-10-04T01:25:48.533Z,0
2017-10-04T01:27:09.020Z,0
2017-10-04T01:28:29.709Z,0
2017-10-04T01:29:49.985Z,0
2017-10-04T01:31:10.200Z,0
2017-10-04T01:32:30.514Z,0
2017-10-04T01:33:50.733Z,0
2017-10-04T01:35:11.269Z,0
2017-10-04T01:36:31.407Z,0
2017-10-04T01:37:51.552Z,0
2017-10-04T01:39:12.271Z,0
2017-10-04T01:40:32.704Z,0
2017-10-04T01:41:53.024Z,0
2017-10-04T01:43:13.175Z,0
2017-10-04T01:44:33.365Z,0
2017-10-04T01:45:53.674Z,0
2017-10-04T01:47:13.892Z,0
2017-10-04T01:48:34.116Z,0
2017-10-04T01:49:54.566Z,0
2017-10-04T01:51:14.816Z,0
2017-10-04T01:52:34.961Z,0
2017-10-04T01:53:55.103Z,0
2017-10-04T01:55:15.686Z,0
2017-10-04T01:56:35.873Z,0
2017-10-04T01:57:56.079Z,0
2017-10-04T01:59:16.322Z,0
2017-10-04T02:00:36.903Z,0
2017-10-04T02:01:56.968Z,0
2017-10-04T02:03:17.014Z,0
2017-10-04T02:04:37.162Z,0
2017-10-04T02:05:57.468Z,0
2017-10-04T02:07:17.807Z,0
2017-10-04T02:08:38.113Z,0
2017-10-04T02:09:58.222Z,0
2017-10-04T02:11:18.312Z,0
2017-10-04T02:12:38.583Z,0
2017-10-04T02:13:58.833Z,0
2017-10-04T02:15:19.189Z,0
2017-10-04T02:16:39.770Z,0
2017-10-04T02:17:59.953Z,0
2017-10-04T02:19:20.075Z,0
2017-10-04T02:20:40.470Z,0
2017-10-04T02:22:00.906Z,0
2017-10-04T02:23:21.236Z,0
2017-10-04T02:24:41.526Z,0
2017-10-04T02:26:02.032Z,0
2017-10-04T02:27:22.612Z,0
2017-10-04T02:28:42.891Z,0
2017-10-04T02:30:03.031Z,0
2017-10-04T02:31:23.431Z,0
2017-10-04T02:32:44.537Z,0
2017-10-04T02:34:05.052Z,0
2017-10-04T02:35:25.265Z,0
2017-10-04T02:36:45.557Z,0
2017-10-04T02:38:06.263Z,0
2017-10-04T02:39:26.516Z,0
2017-10-04T02:40:46.648Z,0
2017-10-04T02:42:07.007Z,0
2017-10-04T02:43:27.096Z,0
2017-10-04T02:44:47.396Z,0
2017-10-04T02:46:07.875Z,0
2017-10-04T02:47:28.062Z,0
2017-10-04T02:48:48.078Z,0
2017-10-04T02:50:08.469Z,0
2017-10-04T02:51:29.491Z,0
2017-10-04T02:52:49.671Z,0
2017-10-04T02:54:09.911Z,0
2017-10-04T02:55:29.981Z,0
2017-10-04T02:56:50.193Z,0
2017-10-04T02:58:11.157Z,0
2017-10-04T02:59:31.267Z,0
2017-10-04T03:00:51.492Z,0
2017-10-04T03:02:11.800Z,0
2017-10-04T03:03:31.999Z,0
2017-10-04T03:04:52.435Z,0
2017-10-04T03:06:12.757Z,0
2017-10-04T03:07:33.694Z,0
2017-10-04T03:08:53.948Z,0
2017-10-04T03:10:14.429Z,0
2017-10-04T03:11:34.481Z,0
2017-10-04T03:12:54.742Z,0
2017-10-04T03:14:15.153Z,0
2017-10-04T03:15:36.545Z,0
2017-10-04T03:16:56.623Z,0
2017-10-04T03:18:16.784Z,0
2017-10-04T03:19:36.989Z,0
2017-10-04T03:20:57.528Z,0
2017-10-04T03:22:17.731Z,0
2017-10-04T03:23:37.923Z,0
2017-10-04T03:24:58.213Z,0
2017-10-04T03:26:18.921Z,0
2017-10-04T03:27:39.175Z,0
2017-10-04T03:28:59.365Z,0
2017-10-04T03:30:19.642Z,0
2017-10-04T03:31:40.538Z,0
2017-10-04T03:33:00.706Z,0
2017-10-04T03:34:21.551Z,0
2017-10-04T03:35:41.788Z,0
2017-10-04T03:37:01.937Z,0
2017-10-04T03:38:22.129Z,0
2017-10-04T03:39:42.208Z,0
2017-10-04T03:41:02.475Z,0
2017-10-04T03:42:23.241Z,0
2017-10-04T03:43:43.566Z,0
2017-10-04T03:45:03.937Z,0
2017-10-04T03:46:23.972Z,0
2017-10-04T03:47:44.038Z,0
2017-10-04T03:49:04.462Z,0
2017-10-04T03:50:24.648Z,0
2017-10-04T03:51:44.696Z,0
2017-10-04T03:53:05.430Z,0
2017-10-04T03:54:25.581Z,0
2017-10-04T03:55:45.809Z,0
2017-10-04T03:57:06.659Z,0
2017-10-04T03:58:27.137Z,0
2017-10-04T03:59:47.307Z,0
2017-10-04T04:01:07.734Z,0
2017-10-04T04:02:27.968Z,0
2017-10-04T04:03:48.456Z,0
2017-10-04T04:05:08.799Z,0
2017-10-04T04:06:29.416Z,0
2017-10-04T04:07:49.668Z,0
2017-10-04T04:09:10.338Z,0
2017-10-04T04:10:30.985Z,0
2017-10-04T04:11:51.198Z,0
2017-10-04T04:13:11.692Z,0
2017-10-04T04:14:32.269Z,0
2017-10-04T04:15:52.878Z,0
2017-10-04T04:17:13.545Z,0
2017-10-04T04:18:34.252Z,0
2017-10-04T04:19:55.075Z,0
2017-10-04T04:21:16.903Z,0
2017-10-04T04:22:37.987Z,0
2017-10-04T04:23:58.899Z,0
2017-10-04T04:25:20.126Z,0
2017-10-04T04:26:41.145Z,0
2017-10-04T04:28:02.445Z,0
2017-10-04T04:29:23.224Z,0
2017-10-04T04:30:43.637Z,0
2017-10-04T04:32:04.070Z,0
2017-10-04T04:33:25.416Z,0
2017-10-04T04:34:46.284Z,0
2017-10-04T04:36:07.034Z,0
2017-10-04T04:37:27.549Z,0
2017-10-04T04:38:48.424Z,0
2017-10-04T04:40:08.821Z,0
2017-10-04T04:41:29.380Z,0
2017-10-04T04:42:50.187Z,0
2017-10-04T04:44:11.360Z,0
2017-10-04T04:45:31.547Z,0
2017-10-04T04:46:52.305Z,0
2017-10-04T04:48:12.451Z,0
2017-10-04T04:56:13.661Z,0
2017-10-04T04:57:33.875Z,0
2017-10-04T04:58:54.490Z,0
2017-10-04T05:00:14.651Z,0
2017-10-04T05:01:35.183Z,0
2017-10-04T05:02:55.290Z,0
2017-10-04T05:04:15.410Z,0
2017-10-04T05:05:35.634Z,0
2017-10-04T05:06:56.439Z,0
2017-10-04T05:08:16.862Z,0
2017-10-04T05:09:37.803Z,0
2017-10-04T05:10:58.080Z,0
2017-10-04T05:12:18.833Z,0
2017-10-04T05:13:38.997Z,0
2017-10-04T05:14:59.232Z,0
2017-10-04T05:16:19.553Z,0
2017-10-04T05:17:40.142Z,0
2017-10-04T05:19:00.232Z,0
2017-10-04T05:20:20.532Z,0
2017-10-04T05:21:40.942Z,0
2017-10-04T05:23:01.267Z,0
2017-10-04T05:24:21.584Z,0
2017-10-04T05:25:41.899Z,1
2017-10-04T05:27:02.367Z,1
2017-10-04T05:28:22.976Z,1
2017-10-04T05:29:43.172Z,1
2017-10-04T05:31:03.707Z,1
2017-10-04T05:32:24.006Z,2
2017-10-04T05:33:44.647Z,2
2017-10-04T05:35:04.939Z,2
2017-10-04T05:36:25.353Z,2
2017-10-04T05:37:45.706Z,3
2017-10-04T05:39:06.564Z,3
2017-10-04T05:40:26.856Z,4
2017-10-04T05:41:47.024Z,4
2017-10-04T05:43:07.566Z,5
2017-10-04T05:44:28.492Z,6
2017-10-04T05:45:48.724Z,6
2017-10-04T05:47:09.077Z,7
2017-10-04T05:48:29.282Z,8
2017-10-04T05:49:49.824Z,8
2017-10-04T05:51:10.157Z,9
2017-10-04T05:52:30.594Z,9
2017-10-04T05:53:51.154Z,10
2017-10-04T05:55:11.994Z,11
2017-10-04T05:56:32.245Z,12
2017-10-04T05:57:53.193Z,13
2017-10-04T05:59:13.725Z,14
2017-10-04T06:00:34.191Z,15
2017-10-04T06:01:54.406Z,17
2017-10-04T06:03:14.826Z,18
2017-10-04T06:04:35.220Z,20
2017-10-04T06:05:55.934Z,21
2017-10-04T06:07:16.331Z,23
2017-10-04T06:08:36.571Z,23
2017-10-04T06:09:56.865Z,24
2017-10-04T06:11:17.401Z,24
2017-10-04T06:12:37.783Z,25
2017-10-04T06:13:58.222Z,26
2017-10-04T06:15:18.669Z,27
2017-10-04T06:16:39.117Z,28
2017-10-04T06:17:59.553Z,29
2017-10-04T06:19:19.801Z,30
2017-10-04T06:20:40.090Z,32
2017-10-04T06:22:00.839Z,35
2017-10-04T06:23:21.346Z,36
2017-10-04T06:24:41.767Z,35
2017-10-04T06:26:02.407Z,34
2017-10-04T06:27:22.904Z,34
2017-10-04T06:28:43.212Z,36
2017-10-04T06:30:03.681Z,39
2017-10-04T06:31:24.830Z,42
2017-10-04T06:32:45.513Z,43
2017-10-04T06:34:05.920Z,42
2017-10-04T06:35:26.359Z,41
2017-10-04T06:36:46.651Z,43
2017-10-04T06:38:08.147Z,46
2017-10-04T06:39:28.727Z,48
2017-10-04T06:40:49.132Z,51
2017-10-04T06:42:09.929Z,52
2017-10-04T06:43:30.686Z,52
2017-10-04T06:44:51.301Z,51
2017-10-04T06:46:12.060Z,52
2017-10-04T06:47:32.442Z,55
2017-10-04T06:48:53.121Z,59
2017-10-04T06:50:13.720Z,65
2017-10-04T06:51:34.151Z,71
2017-10-04T06:52:55.461Z,78
2017-10-04T06:54:16.207Z,93
2017-10-04T06:55:36.718Z,92
2017-10-04T06:56:57.233Z,95
2017-10-04T06:58:17.999Z,97
2017-10-04T06:59:38.560Z,97
2017-10-04T07:00:59.073Z,90
2017-10-04T07:02:19.637Z,85
2017-10-04T07:03:40.160Z,83
2017-10-04T07:05:00.599Z,82
2017-10-04T07:06:20.991Z,81
2017-10-04T07:07:42.048Z,83
2017-10-04T07:09:02.394Z,88
2017-10-04T07:10:23.138Z,91
2017-10-04T07:11:43.436Z,93
2017-10-04T07:13:04.266Z,97
2017-10-04T07:14:24.693Z,99
2017-10-04T07:15:44.962Z,90
2017-10-04T07:17:05.436Z,94
2017-10-04T07:18:25.751Z,98
2017-10-04T07:19:46.159Z,81
2017-10-04T07:21:07.993Z,76
2017-10-04T07:22:28.244Z,77
2017-10-04T07:23:48.749Z,75
2017-10-04T07:25:12.464Z,75
2017-10-04T07:26:32.962Z,73
2017-10-04T07:27:53.249Z,74
2017-10-04T07:29:13.874Z,73
2017-10-04T07:36:01.310Z,100
2017-10-04T07:37:22.043Z,105
2017-10-04T07:38:42.457Z,109
2017-10-04T07:40:03.109Z,111
2017-10-04T07:41:23.817Z,114
2017-10-04T07:42:44.627Z,118
2017-10-04T07:44:05.418Z,117
2017-10-04T07:45:26.676Z,116
2017-10-04T07:46:48.130Z,121
2017-10-04T07:48:08.861Z,134
2017-10-04T07:49:29.380Z,108
2017-10-04T07:50:49.798Z,102
2017-10-04T07:52:10.704Z,97
2017-10-04T07:53:31.243Z,101
2017-10-04T07:54:51.688Z,106
2017-10-04T07:56:12.361Z,114
2017-10-04T07:57:32.993Z,123
2017-10-04T07:58:53.608Z,130
2017-10-04T08:00:14.272Z,135
2017-10-04T08:01:35.140Z,139
2017-10-04T08:02:56.123Z,139
2017-10-04T08:04:16.709Z,132
2017-10-04T08:05:37.265Z,126
2017-10-04T08:06:57.900Z,121
2017-10-04T08:08:18.633Z,114
2017-10-04T08:09:39.168Z,108
2017-10-04T08:10:59.800Z,102
2017-10-04T08:12:20.319Z,98
2017-10-04T08:13:40.746Z,98
2017-10-04T08:15:01.421Z,102
2017-10-04T08:26:01.948Z,108
2017-10-04T08:27:22.340Z,107
2017-10-04T08:28:42.805Z,107
2017-10-04T08:30:04.652Z,108
2017-10-04T08:31:24.993Z,107
2017-10-04T08:32:45.386Z,104
2017-10-04T08:34:06.430Z,101
2017-10-04T08:35:26.812Z,99
2017-10-04T08:36:47.294Z,98
2017-10-04T08:38:08.533Z,94
2017-10-04T08:39:28.959Z,84
2017-10-04T08:40:49.370Z,77
2017-10-04T08:42:09.892Z,69
2017-10-04T08:43:30.233Z,67
2017-10-04T08:44:50.803Z,72
2017-10-04T08:46:11.457Z,83
2017-10-04T08:47:31.801Z,85
2017-10-04T08:48:52.326Z,81
2017-10-04T08:50:12.842Z,79
2017-10-04T08:51:33.289Z,83
2017-10-04T08:52:53.981Z,84
2017-10-04T08:54:14.586Z,88
2017-10-04T08:55:35.807Z,97
2017-10-04T08:56:56.255Z,113
2017-10-04T08:58:17.089Z,131
2017-10-04T08:59:37.782Z,132
2017-10-04T09:00:58.345Z,139
2017-10-04T09:02:18.973Z,154
2017-10-04T09:03:39.897Z,160
2017-10-04T09:05:00.406Z,145
2017-10-04T09:06:21.075Z,111
2017-10-04T09:07:41.706Z,71
2017-10-04T09:09:02.850Z,52
2017-10-04T09:10:23.123Z,43
2017-10-04T09:11:43.934Z,38
2017-10-04T09:13:05.184Z,40
2017-10-04T09:14:26.633Z,54
2017-10-04T09:15:47.508Z,69
2017-10-04T09:17:08.478Z,78
2017-10-04T09:18:30.143Z,99
2017-10-04T09:19:51.661Z,121
2017-10-04T09:21:12.286Z,142
2017-10-04T09:22:33.007Z,139
2017-10-04T09:23:53.539Z,133
2017-10-04T09:25:14.427Z,137
2017-10-04T09:26:34.972Z,135
2017-10-04T09:27:55.488Z,131
2017-10-04T09:29:16.628Z,130
2017-10-04T09:30:37.980Z,146
2017-10-04T09:31:58.544Z,167
2017-10-04T09:33:19.869Z,171
2017-10-04T09:34:40.634Z,168
2017-10-04T09:36:02.614Z,169
2017-10-04T09:37:23.904Z,187
2017-10-04T09:38:44.692Z,223
2017-10-04T09:40:06.050Z,243
2017-10-04T09:41:27.258Z,236
2017-10-04T09:42:48.286Z,232
2017-10-04T09:44:09.615Z,249
2017-10-04T09:45:30.400Z,429
2017-10-04T09:46:51.009Z,270
2017-10-04T09:48:11.542Z,250
2017-10-04T09:49:32.153Z,234
2017-10-04T09:50:52.752Z,267
2017-10-04T09:52:13.758Z,256
2017-10-04T09:53:35.219Z,213
2017-10-04T09:54:56.617Z,252
2017-10-04T09:56:17.320Z,234
2017-10-04T09:57:38.188Z,182
2017-10-04T09:59:01.172Z,173
2017-10-04T10:00:22.404Z,188
2017-10-04T10:01:43.730Z,183
2017-10-04T10:03:05.139Z,160
2017-10-04T10:04:25.604Z,152
2017-10-04T10:05:47.426Z,136
2017-10-04T10:07:08.073Z,132
2017-10-04T10:08:28.887Z,129
2017-10-04T10:09:49.810Z,138
2017-10-04T10:11:10.377Z,136
2017-10-04T10:12:31.454Z,130
2017-10-04T10:13:52.190Z,123
2017-10-04T10:15:13.590Z,128
2017-10-04T10:16:34.125Z,113
2017-10-04T10:17:54.955Z,104
2017-10-04T10:19:16.015Z,93
2017-10-04T10:20:37.152Z,127
2017-10-04T10:21:57.783Z,155
2017-10-04T10:23:19.307Z,145
2017-10-04T10:24:40.723Z,116
2017-10-04T10:26:01.521Z,112
2017-10-04T10:27:22.844Z,129
2017-10-04T10:28:43.430Z,153
2017-10-04T10:30:04.580Z,139
2017-10-04T10:31:25.320Z,131
2017-10-04T10:32:46.024Z,124
2017-10-04T10:34:06.676Z,133
2017-10-04T10:35:27.378Z,120
2017-10-04T10:36:47.862Z,125
2017-10-04T10:38:08.701Z,138
2017-10-04T10:39:29.301Z,121
2017-10-04T10:40:49.715Z,110
2017-10-04T10:42:10.526Z,112
2017-10-04T10:43:30.971Z,99
2017-10-04T10:44:51.606Z,105
2017-10-04T10:46:12.505Z,106
2017-10-04T10:47:33.841Z,119
2017-10-04T10:48:54.473Z,117
2017-10-04T10:50:14.978Z,145
2017-10-04T10:51:36.407Z,156
2017-10-04T10:52:56.926Z,166
2017-10-04T10:54:18.200Z,154
2017-10-04T10:55:39.833Z,127
2017-10-04T10:57:01.934Z,157
2017-10-04T10:58:22.713Z,160
2017-10-04T10:59:43.264Z,131
2017-10-04T11:01:03.946Z,126
2017-10-04T11:02:25.186Z,128
2017-10-04T11:03:45.822Z,138
2017-10-04T11:05:06.407Z,140
2017-10-04T11:06:27.017Z,145
2017-10-04T11:07:47.906Z,151
2017-10-04T11:09:08.506Z,174
2017-10-04T11:10:29.096Z,188
2017-10-04T11:11:50.972Z,181
2017-10-04T11:13:12.105Z,169
2017-10-04T11:14:32.651Z,161
2017-10-04T11:15:53.496Z,167
2017-10-04T11:17:14.785Z,153
2017-10-04T11:18:35.387Z,150
2017-10-04T11:19:56.015Z,135
2017-10-04T11:21:16.682Z,126
2017-10-04T11:22:37.857Z,81
2017-10-04T11:23:59.441Z,81
2017-10-04T11:25:20.339Z,76
2017-10-04T11:26:40.840Z,95
2017-10-04T11:28:02.434Z,105
2017-10-04T11:29:23.578Z,102
2017-10-04T11:30:44.842Z,83
2017-10-04T11:32:05.739Z,77
2017-10-04T11:33:26.863Z,68
2017-10-04T11:34:47.511Z,69
2017-10-04T11:36:08.030Z,81
2017-10-04T11:37:28.587Z,71
2017-10-04T11:38:49.050Z,60
2017-10-04T11:40:09.889Z,72
2017-10-04T11:41:30.933Z,74
2017-10-04T11:42:53.132Z,89
2017-10-04T11:44:22.775Z,86
2017-10-04T11:45:44.114Z,72
2017-10-04T11:47:06.061Z,62
2017-10-04T11:48:28.449Z,57
2017-10-04T11:49:51.058Z,69
2017-10-04T11:51:16.630Z,59
2017-10-04T11:52:40.689Z,56
2017-10-04T11:54:04.834Z,66
2017-10-04T11:55:27.258Z,79
2017-10-04T11:56:50.989Z,76
2017-10-04T11:58:12.965Z,69
2017-10-04T11:59:54.163Z,57
2017-10-04T12:01:14.718Z,48
2017-10-04T12:02:35.623Z,50
2017-10-04T12:03:57.058Z,79
2017-10-04T12:05:18.676Z,77
2017-10-04T12:06:39.982Z,70
2017-10-04T12:08:02.688Z,69
2017-10-04T12:09:23.479Z,67
2017-10-04T12:10:45.067Z,59
2017-10-04T12:12:06.601Z,57
2017-10-04T12:13:28.563Z,68
2017-10-04T12:14:49.198Z,63
2017-10-04T12:16:09.791Z,54
2017-10-04T12:17:30.266Z,79
2017-10-04T12:18:51.712Z,89
2017-10-04T12:20:12.849Z,107
2017-10-04T12:21:34.851Z,100
2017-10-04T12:22:55.325Z,76
2017-10-04T12:24:16.031Z,79
2017-10-04T12:25:36.525Z,89
2017-10-04T12:26:57.005Z,87
2017-10-04T12:28:17.781Z,80
2017-10-04T12:29:38.258Z,62
2017-10-04T12:30:59.043Z,59
2017-10-04T12:32:20.158Z,55
2017-10-04T12:33:40.597Z,65
2017-10-04T12:35:01.334Z,68
2017-10-04T12:36:21.982Z,68
2017-10-04T12:37:42.877Z,72
2017-10-04T12:39:03.552Z,74
2017-10-04T12:40:25.296Z,89
2017-10-04T12:41:45.823Z,83
2017-10-04T12:43:07.088Z,71
2017-10-04T12:44:28.696Z,61
2017-10-04T12:45:49.454Z,51
2017-10-04T12:47:10.634Z,53
2017-10-04T12:48:31.111Z,63
2017-10-04T12:49:51.742Z,86
2017-10-04T12:51:12.662Z,104
2017-10-04T12:52:33.770Z,119
2017-10-04T12:53:54.430Z,112
2017-10-04T12:55:15.217Z,107
2017-10-04T12:56:35.830Z,97
2017-10-04T12:57:56.533Z,88
2017-10-04T12:59:17.026Z,86
2017-10-04T13:00:38.476Z,83
2017-10-04T13:01:59.057Z,66
2017-10-04T13:03:19.531Z,63
2017-10-04T13:04:40.307Z,46
2017-10-04T13:06:00.986Z,57
2017-10-04T13:07:21.374Z,66
2017-10-04T13:08:41.945Z,61
2017-10-04T13:10:02.802Z,54
2017-10-04T13:11:23.243Z,50
2017-10-04T13:12:44.091Z,68
2017-10-04T13:14:05.497Z,78
2017-10-04T13:15:25.786Z,70
2017-10-04T13:16:46.389Z,81
2017-10-04T13:18:07.273Z,95
2017-10-04T13:19:27.966Z,85
2017-10-04T13:20:48.450Z,78
2017-10-04T13:22:08.830Z,84
2017-10-04T13:23:30.151Z,97
2017-10-04T13:24:50.776Z,94
2017-10-04T13:26:11.271Z,87
2017-10-04T13:27:31.905Z,80
2017-10-04T13:28:52.821Z,80
2017-10-04T13:30:14.258Z,78
2017-10-04T13:31:35.072Z,71
2017-10-04T13:32:55.800Z,78
2017-10-04T13:34:17.039Z,92
2017-10-04T13:35:38.082Z,93
2017-10-04T13:36:58.654Z,103
2017-10-04T13:38:19.337Z,107
2017-10-04T13:39:41.074Z,103
2017-10-04T13:41:04.733Z,99
2017-10-04T13:42:39.224Z,95
2017-10-04T13:44:11.604Z,91
2017-10-04T13:45:32.216Z,83
2017-10-04T13:46:52.738Z,102
2017-10-04T13:48:13.370Z,95
2017-10-04T13:49:35.262Z,77
2017-10-04T13:50:56.580Z,63
2017-10-04T13:52:17.228Z,73
2017-10-04T13:53:42.113Z,78
2017-10-04T13:55:03.000Z,78
2017-10-04T13:56:24.421Z,69
2017-10-04T13:57:46.464Z,50
2017-10-04T13:59:08.350Z,42
2017-10-04T14:00:33.637Z,34
2017-10-04T14:01:55.911Z,29
2017-10-04T14:03:18.304Z,46
2017-10-04T14:04:39.490Z,47
2017-10-04T14:06:00.272Z,36
2017-10-04T14:07:21.335Z,25
2017-10-04T14:08:41.880Z,19
2017-10-04T14:10:02.749Z,23
2017-10-04T14:11:23.692Z,53
2017-10-04T14:12:44.696Z,70
2017-10-04T14:14:05.417Z,72
2017-10-04T14:15:25.869Z,69
2017-10-04T14:16:46.319Z,68
2017-10-04T14:18:07.276Z,66
2017-10-04T14:19:27.882Z,64
2017-10-04T14:20:49.508Z,59
2017-10-04T14:22:10.309Z,49
2017-10-04T14:23:31.200Z,43
2017-10-04T14:24:52.407Z,33
2017-10-04T14:26:23.317Z,32
2017-10-04T14:27:45.657Z,44
2017-10-04T14:29:08.590Z,43
2017-10-04T14:30:36.348Z,48
2017-10-04T14:31:58.091Z,52
2017-10-04T14:33:18.954Z,58
2017-10-04T14:34:40.770Z,61
2017-10-04T14:36:07.315Z,59
2017-10-04T14:37:29.060Z,56
2017-10-04T14:38:49.717Z,53
2017-10-04T14:40:12.809Z,51
2017-10-04T14:41:33.473Z,48
2017-10-04T14:42:54.085Z,41
2017-10-04T14:44:14.806Z,41
2017-10-04T14:45:36.116Z,42
2017-10-04T14:46:56.871Z,41
2017-10-04T14:48:17.602Z,40
2017-10-04T14:49:38.297Z,43
2017-10-04T14:50:59.425Z,41
2017-10-04T14:52:20.265Z,45
2017-10-04T14:53:40.768Z,42
2017-10-04T14:55:01.597Z,42
2017-10-04T14:56:23.036Z,34
2017-10-04T14:57:43.750Z,35
2017-10-04T14:59:04.612Z,32
2017-10-04T15:00:25.128Z,35
2017-10-04T15:01:46.038Z,36
2017-10-04T15:03:07.908Z,36
2017-10-04T15:04:28.645Z,33
2017-10-04T15:05:49.498Z,36
2017-10-04T15:07:12.074Z,40
2017-10-04T15:08:32.865Z,37
2017-10-04T15:09:54.213Z,35
2017-10-04T15:11:15.249Z,33
2017-10-04T15:12:36.193Z,33
2017-10-04T15:13:57.779Z,35
2017-10-04T15:15:18.253Z,38
2017-10-04T15:16:39.182Z,37
2017-10-04T15:18:00.418Z,37
2017-10-04T15:19:22.824Z,34
2017-10-04T15:20:45.491Z,31
2017-10-04T15:22:06.328Z,28
2017-10-04T15:23:27.202Z,29
2017-10-04T15:24:48.675Z,27
2017-10-04T15:26:09.384Z,26
2017-10-04T15:27:30.806Z,27
2017-10-04T15:28:51.536Z,24
2017-10-04T15:30:12.475Z,22
2017-10-04T15:31:33.206Z,28
2017-10-04T15:32:54.359Z,33
2017-10-04T15:34:45.556Z,40
2017-10-04T15:36:06.924Z,47
2017-10-04T15:37:27.562Z,44
2017-10-04T15:38:49.624Z,39
2017-10-04T15:40:10.851Z,36
2017-10-04T15:41:31.476Z,36
2017-10-04T15:42:52.669Z,41
2017-10-04T15:44:14.184Z,44
2017-10-04T15:45:35.663Z,43
2017-10-04T15:46:56.164Z,42
2017-10-04T15:48:16.875Z,40
2017-10-04T15:49:37.164Z,35
2017-10-04T15:50:59.937Z,28
2017-10-04T15:52:20.423Z,26
2017-10-04T15:53:40.987Z,20
2017-10-04T15:55:01.520Z,24
2017-10-04T15:56:22.426Z,31
2017-10-04T15:57:42.953Z,33
2017-10-04T15:59:04.111Z,31
2017-10-04T16:00:25.537Z,27
2017-10-04T16:01:46.556Z,20
2017-10-04T16:03:07.462Z,15
2017-10-04T16:04:28.208Z,10
2017-10-04T16:05:48.718Z,8
2017-10-04T16:07:09.600Z,10
2017-10-04T16:08:31.630Z,15
2017-10-04T16:09:52.471Z,15
2017-10-04T16:11:13.190Z,13
2017-10-04T16:12:34.514Z,17
2017-10-04T16:13:55.687Z,17
2017-10-04T16:15:17.077Z,14
2017-10-04T16:16:38.941Z,13
2017-10-04T16:17:59.872Z,14
2017-10-04T16:19:21.279Z,14
2017-10-04T16:20:41.961Z,8
2017-10-04T16:22:03.357Z,5
2017-10-04T16:23:24.348Z,5
2017-10-04T16:24:45.721Z,7
2017-10-04T16:26:08.066Z,5
2017-10-04T16:27:28.740Z,4
2017-10-04T16:28:49.414Z,3
2017-10-04T16:30:10.399Z,3
2017-10-04T16:31:30.888Z,5
2017-10-04T16:32:52.326Z,7
2017-10-04T16:34:13.514Z,7
2017-10-04T16:35:34.187Z,7
2017-10-04T16:36:55.230Z,5
2017-10-04T16:38:15.958Z,5
2017-10-04T16:39:36.977Z,5
2017-10-04T16:40:57.675Z,4
2017-10-04T16:42:18.678Z,2
2017-10-04T16:43:39.912Z,2
2017-10-04T16:45:01.144Z,2
2017-10-04T16:46:22.432Z,2
2017-10-04T16:47:43.243Z,2
2017-10-04T16:49:04.818Z,2
2017-10-04T16:50:25.756Z,1
2017-10-04T16:51:47.193Z,1
2017-10-04T16:53:08.852Z,2
2017-10-04T16:54:30.178Z,1
2017-10-04T16:55:51.347Z,1
2017-10-04T16:57:13.236Z,1
2017-10-04T16:58:35.109Z,1
2017-10-04T16:59:57.856Z,1
2017-10-04T17:01:18.887Z,1
2017-10-04T17:02:40.203Z,1
2017-10-04T17:04:06.224Z,0
2017-10-04T17:05:28.005Z,0
2017-10-04T17:06:48.594Z,0
2017-10-04T17:08:09.110Z,0
2017-10-04T17:09:30.322Z,0
2017-10-04T17:10:50.753Z,0
2017-10-04T17:12:12.186Z,0
2017-10-04T17:13:33.811Z,0
2017-10-04T17:14:54.955Z,0
2017-10-04T17:16:16.744Z,0
2017-10-04T17:17:37.540Z,0
2017-10-04T17:18:58.203Z,0
2017-10-04T17:20:19.263Z,0
2017-10-04T17:21:39.852Z,0
2017-10-04T17:23:00.895Z,0
2017-10-04T17:24:22.517Z,0
2017-10-04T17:25:43.090Z,0
2017-10-04T17:27:03.728Z,0
2017-10-04T17:28:24.174Z,0
2017-10-04T17:36:00.996Z,0
2017-10-04T17:37:28.724Z,0
2017-10-04T17:38:50.214Z,0
2017-10-04T17:40:11.773Z,0
2017-10-04T17:41:32.382Z,0
2017-10-04T17:42:53.052Z,0
2017-10-04T17:44:13.555Z,0
2017-10-04T17:45:34.161Z,0
2017-10-04T17:46:56.239Z,0
2017-10-04T17:48:16.740Z,0
2017-10-04T17:49:37.934Z,0
2017-10-04T17:50:59.464Z,0
2017-10-04T17:52:19.923Z,0
2017-10-04T17:53:41.364Z,0
2017-10-04T17:55:01.916Z,0
2017-10-04T17:56:22.358Z,0
2017-10-04T17:57:44.404Z,0
2017-10-04T17:59:04.834Z,0
2017-10-04T18:00:26.121Z,0
2017-10-04T18:01:49.287Z,0
2017-10-04T18:03:11.099Z,0
2017-10-04T18:04:33.030Z,0
2017-10-04T18:05:54.982Z,0
2017-10-04T18:07:15.559Z,0
2017-10-04T18:08:37.122Z,0
2017-10-04T18:09:57.728Z,0
2017-10-04T18:11:18.196Z,0
2017-10-04T18:12:38.769Z,0
2017-10-04T18:14:00.368Z,0
2017-10-04T18:15:20.792Z,0
2017-10-04T18:17:02.847Z,0
2017-10-04T18:18:23.715Z,0
2017-10-04T18:19:45.335Z,0
2017-10-04T18:21:05.954Z,0
2017-10-04T18:22:30.413Z,0
2017-10-04T18:23:52.080Z,0
2017-10-04T18:25:12.846Z,0
2017-10-04T18:26:34.431Z,0
2017-10-04T18:27:56.066Z,0
2017-10-04T18:29:18.467Z,0
2017-10-04T18:30:40.946Z,0
2017-10-04T18:32:02.817Z,0
2017-10-04T18:33:24.545Z,0
2017-10-04T18:34:47.241Z,0
2017-10-04T18:36:08.593Z,0
2017-10-04T18:37:30.830Z,0
2017-10-04T18:38:51.617Z,0
2017-10-04T18:40:12.329Z,0
2017-10-04T19:36:06.553Z,0
2017-10-04T19:37:08.512Z,0
2017-10-04T19:38:07.191Z,0
2017-10-04T19:39:06.850Z,0
2017-10-04T19:40:08.245Z,0
2017-10-04T19:41:06.950Z,0
2017-10-04T19:42:07.841Z,0
2017-10-04T19:43:08.136Z,0
2017-10-04T19:44:07.160Z,0
2017-10-04T19:45:07.401Z,0
2017-10-04T19:46:08.634Z,0
2017-10-04T19:47:08.195Z,0
2017-10-04T19:48:08.280Z,0
2017-10-04T19:49:08.243Z,0
2017-10-04T19:50:07.554Z,0
2017-10-04T19:51:07.844Z,0
2017-10-04T19:52:06.731Z,0
2017-10-04T19:53:08.303Z,0
2017-10-04T19:54:07.200Z,0
2017-10-04T19:55:07.600Z,0
2017-10-04T19:56:07.864Z,0
2017-10-04T19:57:08.057Z,0
2017-10-04T19:58:08.274Z,0
2017-10-04T19:59:07.443Z,0
2017-10-04T20:00:08.014Z,0
2017-10-04T20:01:07.537Z,0
2017-10-04T20:02:07.177Z,0
2017-10-04T20:03:07.067Z,0
2017-10-04T20:04:06.535Z,0
2017-10-04T20:05:07.492Z,0
2017-10-04T20:06:10.188Z,0
2017-10-04T20:07:07.590Z,0
2017-10-04T20:08:06.979Z,0
2017-10-04T20:09:07.236Z,0
2017-10-04T20:10:10.131Z,0
2017-10-04T20:11:08.905Z,0
2017-10-04T20:12:07.027Z,0
2017-10-04T20:13:08.330Z,0
2017-10-04T20:14:09.609Z,0
2017-10-04T20:15:07.691Z,0
2017-10-04T20:16:06.762Z,0
2017-10-04T20:17:07.251Z,0
2017-10-04T20:18:08.718Z,0
2017-10-04T20:19:08.105Z,0
2017-10-04T20:20:06.819Z,0
2017-10-04T20:21:08.282Z,0
2017-10-04T20:22:07.255Z,0
2017-10-04T20:23:08.267Z,0
2017-10-04T20:24:06.815Z,0
2017-10-04T20:25:07.620Z,0
2017-10-04T20:26:06.596Z,0
2017-10-04T20:27:07.693Z,0
2017-10-04T20:28:07.205Z,0
2017-10-04T20:29:08.173Z,0
2017-10-04T20:30:07.651Z,0
2017-10-04T20:31:08.462Z,0
2017-10-04T20:32:08.415Z,0